sensor_id;sensor_type;location;lat;lon;timestamp;P1;durP1;ratioP1;P2;durP2;ratioP2
39020;SDS011;25188;51.958;5.842;2023-04-24T00:01:41;15.70;;;9.60;;
39020;SDS011;25188;51.958;5.842;2023-04-24T00:04:07;12.43;;;8.67;;
39020;SDS011;25188;51.958;5.842;2023-04-24T00:06:35;13.30;;;9.30;;
39020;SDS011;25188;51.958;5.842;2023-04-24T00:09:02;13.77;;;9.50;;
39020;SDS011;25188;51.958;5.842;2023-04-24T00:11:29;13.80;;;9.47;;
39020;SDS011;25188;51.958;5.842;2023-04-24T00:13:55;13.67;;;9.90;;
39020;SDS011;25188;51.958;5.842;2023-04-24T00:16:22;11.97;;;8.07;;
39020;SDS011;25188;51.958;5.842;2023-04-24T00:18:48;13.70;;;8.17;;
39020;SDS011;25188;51.958;5.842;2023-04-24T00:21:14;10.20;;;6.13;;
39020;SDS011;25188;51.958;5.842;2023-04-24T00:23:42;8.70;;;4.83;;
39020;SDS011;25188;51.958;5.842;2023-04-24T00:26:08;7.80;;;5.07;;
39020;SDS011;25188;51.958;5.842;2023-04-24T00:28:34;6.43;;;3.63;;
39020;SDS011;25188;51.958;5.842;2023-04-24T00:31:00;5.57;;;3.43;;
39020;SDS011;25188;51.958;5.842;2023-04-24T00:33:26;5.70;;;3.10;;
39020;SDS011;25188;51.958;5.842;2023-04-24T00:35:51;4.20;;;2.70;;
39020;SDS011;25188;51.958;5.842;2023-04-24T00:38:17;4.20;;;2.70;;
39020;SDS011;25188;51.958;5.842;2023-04-24T00:40:43;7.10;;;2.50;;
39020;SDS011;25188;51.958;5.842;2023-04-24T00:43:09;4.70;;;2.93;;
39020;SDS011;25188;51.958;5.842;2023-04-24T00:45:35;5.53;;;3.60;;
39020;SDS011;25188;51.958;5.842;2023-04-24T00:48:01;4.67;;;2.77;;
39020;SDS011;25188;51.958;5.842;2023-04-24T00:50:27;6.07;;;2.47;;
39020;SDS011;25188;51.958;5.842;2023-04-24T00:52:54;7.87;;;3.47;;
39020;SDS011;25188;51.958;5.842;2023-04-24T00:55:20;5.87;;;4.20;;
39020;SDS011;25188;51.958;5.842;2023-04-24T00:57:45;7.10;;;4.43;;
39020;SDS011;25188;51.958;5.842;2023-04-24T01:00:13;7.73;;;4.90;;
39020;SDS011;25188;51.958;5.842;2023-04-24T01:02:40;9.50;;;5.97;;
39020;SDS011;25188;51.958;5.842;2023-04-24T01:05:11;10.27;;;6.47;;
39020;SDS011;25188;51.958;5.842;2023-04-24T01:07:38;10.43;;;6.73;;
39020;SDS011;25188;51.958;5.842;2023-04-24T01:10:06;12.57;;;8.43;;
39020;SDS011;25188;51.958;5.842;2023-04-24T01:12:33;18.63;;;11.40;;
39020;SDS011;25188;51.958;5.842;2023-04-24T01:14:59;22.07;;;14.03;;
39020;SDS011;25188;51.958;5.842;2023-04-24T01:17:25;23.77;;;15.43;;
39020;SDS011;25188;51.958;5.842;2023-04-24T01:19:50;24.23;;;16.50;;
39020;SDS011;25188;51.958;5.842;2023-04-24T01:22:21;29.90;;;18.53;;
39020;SDS011;25188;51.958;5.842;2023-04-24T01:24:47;27.23;;;17.37;;
39020;SDS011;25188;51.958;5.842;2023-04-24T01:27:13;27.57;;;18.63;;
39020;SDS011;25188;51.958;5.842;2023-04-24T01:29:39;27.57;;;18.90;;
39020;SDS011;25188;51.958;5.842;2023-04-24T01:32:05;30.37;;;20.53;;
39020;SDS011;25188;51.958;5.842;2023-04-24T01:34:31;29.10;;;20.10;;
39020;SDS011;25188;51.958;5.842;2023-04-24T01:36:57;31.03;;;20.33;;
39020;SDS011;25188;51.958;5.842;2023-04-24T01:39:23;30.57;;;20.13;;
39020;SDS011;25188;51.958;5.842;2023-04-24T01:41:50;29.53;;;20.27;;
39020;SDS011;25188;51.958;5.842;2023-04-24T01:44:17;33.47;;;21.33;;
39020;SDS011;25188;51.958;5.842;2023-04-24T01:46:43;34.30;;;21.57;;
39020;SDS011;25188;51.958;5.842;2023-04-24T01:49:09;34.77;;;21.97;;
39020;SDS011;25188;51.958;5.842;2023-04-24T01:51:35;32.17;;;20.57;;
39020;SDS011;25188;51.958;5.842;2023-04-24T01:54:01;27.97;;;18.23;;
39020;SDS011;25188;51.958;5.842;2023-04-24T01:56:28;29.73;;;17.43;;
39020;SDS011;25188;51.958;5.842;2023-04-24T01:58:55;31.53;;;17.10;;
39020;SDS011;25188;51.958;5.842;2023-04-24T02:01:23;32.50;;;19.30;;
39020;SDS011;25188;51.958;5.842;2023-04-24T02:03:49;32.63;;;18.73;;
39020;SDS011;25188;51.958;5.842;2023-04-24T02:06:15;33.80;;;20.20;;
39020;SDS011;25188;51.958;5.842;2023-04-24T02:08:41;32.33;;;21.10;;
39020;SDS011;25188;51.958;5.842;2023-04-24T02:11:08;33.20;;;21.80;;
39020;SDS011;25188;51.958;5.842;2023-04-24T02:13:34;39.30;;;25.00;;
39020;SDS011;25188;51.958;5.842;2023-04-24T02:15:59;43.90;;;28.10;;
39020;SDS011;25188;51.958;5.842;2023-04-24T02:18:25;43.30;;;27.73;;
39020;SDS011;25188;51.958;5.842;2023-04-24T02:20:51;42.77;;;28.33;;
39020;SDS011;25188;51.958;5.842;2023-04-24T02:23:17;45.40;;;30.23;;
39020;SDS011;25188;51.958;5.842;2023-04-24T02:25:42;47.57;;;30.50;;
39020;SDS011;25188;51.958;5.842;2023-04-24T02:28:08;51.00;;;32.23;;
39020;SDS011;25188;51.958;5.842;2023-04-24T02:30:34;46.73;;;30.07;;
39020;SDS011;25188;51.958;5.842;2023-04-24T02:32:59;55.13;;;33.87;;
39020;SDS011;25188;51.958;5.842;2023-04-24T02:35:25;54.03;;;32.87;;
39020;SDS011;25188;51.958;5.842;2023-04-24T02:37:51;47.27;;;30.63;;
39020;SDS011;25188;51.958;5.842;2023-04-24T02:40:16;51.17;;;32.03;;
39020;SDS011;25188;51.958;5.842;2023-04-24T02:42:42;45.90;;;30.43;;
39020;SDS011;25188;51.958;5.842;2023-04-24T02:45:07;43.67;;;28.90;;
39020;SDS011;25188;51.958;5.842;2023-04-24T02:47:33;45.47;;;28.17;;
39020;SDS011;25188;51.958;5.842;2023-04-24T02:49:59;47.37;;;29.20;;
39020;SDS011;25188;51.958;5.842;2023-04-24T02:52:25;41.93;;;27.77;;
39020;SDS011;25188;51.958;5.842;2023-04-24T02:54:50;45.63;;;29.03;;
39020;SDS011;25188;51.958;5.842;2023-04-24T02:57:16;46.93;;;29.60;;
39020;SDS011;25188;51.958;5.842;2023-04-24T02:59:41;48.97;;;28.90;;
39020;SDS011;25188;51.958;5.842;2023-04-24T03:02:07;39.80;;;25.73;;
39020;SDS011;25188;51.958;5.842;2023-04-24T03:04:33;42.93;;;26.67;;
39020;SDS011;25188;51.958;5.842;2023-04-24T03:06:59;41.70;;;26.73;;
39020;SDS011;25188;51.958;5.842;2023-04-24T03:09:24;46.13;;;26.57;;
39020;SDS011;25188;51.958;5.842;2023-04-24T03:11:50;38.33;;;25.07;;
39020;SDS011;25188;51.958;5.842;2023-04-24T03:14:16;44.93;;;26.00;;
39020;SDS011;25188;51.958;5.842;2023-04-24T03:16:41;40.87;;;24.67;;
39020;SDS011;25188;51.958;5.842;2023-04-24T03:19:07;35.23;;;23.57;;
39020;SDS011;25188;51.958;5.842;2023-04-24T03:21:33;39.43;;;24.97;;
39020;SDS011;25188;51.958;5.842;2023-04-24T03:24:00;41.07;;;26.33;;
39020;SDS011;25188;51.958;5.842;2023-04-24T03:26:26;46.00;;;26.10;;
39020;SDS011;25188;51.958;5.842;2023-04-24T03:28:51;39.77;;;25.57;;
39020;SDS011;25188;51.958;5.842;2023-04-24T03:31:17;45.33;;;29.53;;
39020;SDS011;25188;51.958;5.842;2023-04-24T03:33:44;46.30;;;29.40;;
39020;SDS011;25188;51.958;5.842;2023-04-24T03:36:09;48.30;;;30.33;;
39020;SDS011;25188;51.958;5.842;2023-04-24T03:38:35;46.27;;;30.67;;
39020;SDS011;25188;51.958;5.842;2023-04-24T03:41:00;46.93;;;31.10;;
39020;SDS011;25188;51.958;5.842;2023-04-24T03:43:26;53.87;;;34.97;;
39020;SDS011;25188;51.958;5.842;2023-04-24T03:45:52;53.57;;;34.90;;
39020;SDS011;25188;51.958;5.842;2023-04-24T03:48:18;61.13;;;36.47;;
39020;SDS011;25188;51.958;5.842;2023-04-24T03:50:43;60.30;;;39.27;;
39020;SDS011;25188;51.958;5.842;2023-04-24T03:53:09;57.10;;;39.37;;
39020;SDS011;25188;51.958;5.842;2023-04-24T03:55:35;70.90;;;41.47;;
39020;SDS011;25188;51.958;5.842;2023-04-24T03:58:01;68.07;;;43.10;;
39020;SDS011;25188;51.958;5.842;2023-04-24T04:00:26;63.17;;;41.37;;
39020;SDS011;25188;51.958;5.842;2023-04-24T04:02:52;63.07;;;41.67;;
39020;SDS011;25188;51.958;5.842;2023-04-24T04:05:18;67.30;;;41.93;;
39020;SDS011;25188;51.958;5.842;2023-04-24T04:07:44;70.77;;;41.77;;
39020;SDS011;25188;51.958;5.842;2023-04-24T04:10:10;63.37;;;40.60;;
39020;SDS011;25188;51.958;5.842;2023-04-24T04:12:35;59.87;;;41.33;;
39020;SDS011;25188;51.958;5.842;2023-04-24T04:15:01;61.60;;;38.77;;
39020;SDS011;25188;51.958;5.842;2023-04-24T04:17:27;58.33;;;38.47;;
39020;SDS011;25188;51.958;5.842;2023-04-24T04:19:53;59.63;;;38.20;;
39020;SDS011;25188;51.958;5.842;2023-04-24T04:22:18;59.40;;;38.43;;
39020;SDS011;25188;51.958;5.842;2023-04-24T04:24:44;58.70;;;37.60;;
39020;SDS011;25188;51.958;5.842;2023-04-24T04:27:11;53.80;;;36.60;;
39020;SDS011;25188;51.958;5.842;2023-04-24T04:29:37;53.20;;;37.33;;
39020;SDS011;25188;51.958;5.842;2023-04-24T04:32:04;56.63;;;36.50;;
39020;SDS011;25188;51.958;5.842;2023-04-24T04:34:31;59.17;;;37.27;;
39020;SDS011;25188;51.958;5.842;2023-04-24T04:36:56;52.57;;;35.53;;
39020;SDS011;25188;51.958;5.842;2023-04-24T04:39:25;59.53;;;35.93;;
39020;SDS011;25188;51.958;5.842;2023-04-24T04:41:51;54.70;;;35.63;;
39020;SDS011;25188;51.958;5.842;2023-04-24T04:44:17;62.70;;;38.40;;
39020;SDS011;25188;51.958;5.842;2023-04-24T04:46:43;58.20;;;35.50;;
39020;SDS011;25188;51.958;5.842;2023-04-24T04:49:09;59.53;;;36.67;;
39020;SDS011;25188;51.958;5.842;2023-04-24T04:51:35;57.23;;;35.60;;
39020;SDS011;25188;51.958;5.842;2023-04-24T04:54:01;57.30;;;36.07;;
39020;SDS011;25188;51.958;5.842;2023-04-24T04:56:27;58.97;;;36.50;;
39020;SDS011;25188;51.958;5.842;2023-04-24T04:58:52;56.90;;;35.97;;
39020;SDS011;25188;51.958;5.842;2023-04-24T05:01:18;57.20;;;34.87;;
39020;SDS011;25188;51.958;5.842;2023-04-24T05:03:44;55.60;;;34.03;;
39020;SDS011;25188;51.958;5.842;2023-04-24T05:06:10;58.33;;;36.27;;
39020;SDS011;25188;51.958;5.842;2023-04-24T05:08:35;58.13;;;35.37;;
39020;SDS011;25188;51.958;5.842;2023-04-24T05:11:01;58.90;;;32.63;;
39020;SDS011;25188;51.958;5.842;2023-04-24T05:13:26;62.73;;;35.77;;
39020;SDS011;25188;51.958;5.842;2023-04-24T05:15:52;52.87;;;33.80;;
39020;SDS011;25188;51.958;5.842;2023-04-24T05:18:18;58.33;;;34.13;;
39020;SDS011;25188;51.958;5.842;2023-04-24T05:20:43;61.77;;;35.57;;
39020;SDS011;25188;51.958;5.842;2023-04-24T05:23:09;57.43;;;32.13;;
39020;SDS011;25188;51.958;5.842;2023-04-24T05:25:35;49.33;;;29.20;;
39020;SDS011;25188;51.958;5.842;2023-04-24T05:28:01;53.00;;;31.40;;
39020;SDS011;25188;51.958;5.842;2023-04-24T05:30:27;49.60;;;29.23;;
39020;SDS011;25188;51.958;5.842;2023-04-24T05:32:53;49.07;;;28.70;;
39020;SDS011;25188;51.958;5.842;2023-04-24T05:35:18;47.40;;;27.97;;
39020;SDS011;25188;51.958;5.842;2023-04-24T05:37:44;43.63;;;25.37;;
39020;SDS011;25188;51.958;5.842;2023-04-24T05:40:10;49.40;;;28.80;;
39020;SDS011;25188;51.958;5.842;2023-04-24T05:42:36;47.43;;;28.57;;
39020;SDS011;25188;51.958;5.842;2023-04-24T05:45:02;46.53;;;28.17;;
39020;SDS011;25188;51.958;5.842;2023-04-24T05:47:28;47.03;;;25.00;;
39020;SDS011;25188;51.958;5.842;2023-04-24T05:49:54;44.27;;;25.63;;
39020;SDS011;25188;51.958;5.842;2023-04-24T05:52:20;43.47;;;25.30;;
39020;SDS011;25188;51.958;5.842;2023-04-24T05:54:46;37.17;;;22.07;;
39020;SDS011;25188;51.958;5.842;2023-04-24T05:57:11;39.33;;;21.13;;
39020;SDS011;25188;51.958;5.842;2023-04-24T05:59:37;34.70;;;20.60;;
39020;SDS011;25188;51.958;5.842;2023-04-24T06:02:06;39.77;;;21.47;;
39020;SDS011;25188;51.958;5.842;2023-04-24T06:04:32;36.57;;;21.07;;
39020;SDS011;25188;51.958;5.842;2023-04-24T06:06:58;37.67;;;20.30;;
39020;SDS011;25188;51.958;5.842;2023-04-24T06:09:24;35.90;;;20.23;;
39020;SDS011;25188;51.958;5.842;2023-04-24T06:11:50;35.23;;;19.87;;
39020;SDS011;25188;51.958;5.842;2023-04-24T06:14:18;30.53;;;17.73;;
39020;SDS011;25188;51.958;5.842;2023-04-24T06:16:44;30.00;;;17.73;;
39020;SDS011;25188;51.958;5.842;2023-04-24T06:19:10;32.03;;;18.13;;
39020;SDS011;25188;51.958;5.842;2023-04-24T06:21:36;26.40;;;16.33;;
39020;SDS011;25188;51.958;5.842;2023-04-24T06:24:02;25.30;;;15.70;;
39020;SDS011;25188;51.958;5.842;2023-04-24T06:26:29;32.87;;;16.83;;
39020;SDS011;25188;51.958;5.842;2023-04-24T06:28:54;28.80;;;17.03;;
39020;SDS011;25188;51.958;5.842;2023-04-24T06:31:20;28.97;;;16.37;;
39020;SDS011;25188;51.958;5.842;2023-04-24T06:33:47;23.80;;;15.23;;
39020;SDS011;25188;51.958;5.842;2023-04-24T06:36:13;26.10;;;13.77;;
39020;SDS011;25188;51.958;5.842;2023-04-24T06:38:39;26.70;;;15.13;;
39020;SDS011;25188;51.958;5.842;2023-04-24T06:41:05;20.50;;;12.80;;
39020;SDS011;25188;51.958;5.842;2023-04-24T06:43:31;20.90;;;13.37;;
39020;SDS011;25188;51.958;5.842;2023-04-24T06:45:57;21.60;;;13.57;;
39020;SDS011;25188;51.958;5.842;2023-04-24T06:48:24;26.07;;;15.10;;
39020;SDS011;25188;51.958;5.842;2023-04-24T06:50:50;24.27;;;14.70;;
39020;SDS011;25188;51.958;5.842;2023-04-24T06:53:16;25.57;;;14.67;;
39020;SDS011;25188;51.958;5.842;2023-04-24T06:55:42;18.43;;;11.50;;
39020;SDS011;25188;51.958;5.842;2023-04-24T06:58:11;17.60;;;10.20;;
39020;SDS011;25188;51.958;5.842;2023-04-24T07:00:37;14.57;;;9.10;;
39020;SDS011;25188;51.958;5.842;2023-04-24T07:03:03;13.20;;;8.10;;
39020;SDS011;25188;51.958;5.842;2023-04-24T07:05:30;11.57;;;5.97;;
39020;SDS011;25188;51.958;5.842;2023-04-24T07:07:56;11.40;;;6.20;;
39020;SDS011;25188;51.958;5.842;2023-04-24T07:10:23;11.97;;;5.53;;
39020;SDS011;25188;51.958;5.842;2023-04-24T07:12:49;8.67;;;4.43;;
39020;SDS011;25188;51.958;5.842;2023-04-24T07:15:15;11.77;;;5.20;;
39020;SDS011;25188;51.958;5.842;2023-04-24T07:17:41;12.17;;;6.43;;
39020;SDS011;25188;51.958;5.842;2023-04-24T07:20:09;14.07;;;6.50;;
39020;SDS011;25188;51.958;5.842;2023-04-24T07:22:37;10.57;;;5.50;;
39020;SDS011;25188;51.958;5.842;2023-04-24T07:25:03;9.83;;;4.43;;
39020;SDS011;25188;51.958;5.842;2023-04-24T07:27:30;9.67;;;3.43;;
39020;SDS011;25188;51.958;5.842;2023-04-24T07:29:56;4.63;;;1.90;;
39020;SDS011;25188;51.958;5.842;2023-04-24T07:32:22;4.77;;;1.70;;
39020;SDS011;25188;51.958;5.842;2023-04-24T07:34:47;7.23;;;2.80;;
39020;SDS011;25188;51.958;5.842;2023-04-24T07:37:13;7.53;;;2.80;;
39020;SDS011;25188;51.958;5.842;2023-04-24T07:39:40;10.07;;;4.20;;
39020;SDS011;25188;51.958;5.842;2023-04-24T07:42:06;9.93;;;4.63;;
39020;SDS011;25188;51.958;5.842;2023-04-24T07:44:31;15.33;;;6.77;;
39020;SDS011;25188;51.958;5.842;2023-04-24T07:46:57;17.40;;;8.33;;
39020;SDS011;25188;51.958;5.842;2023-04-24T07:49:23;23.73;;;10.73;;
39020;SDS011;25188;51.958;5.842;2023-04-24T07:51:49;19.57;;;10.57;;
39020;SDS011;25188;51.958;5.842;2023-04-24T07:54:15;24.07;;;12.27;;
39020;SDS011;25188;51.958;5.842;2023-04-24T07:56:41;24.50;;;13.53;;
39020;SDS011;25188;51.958;5.842;2023-04-24T07:59:08;22.67;;;12.63;;
39020;SDS011;25188;51.958;5.842;2023-04-24T08:01:37;25.17;;;13.37;;
39020;SDS011;25188;51.958;5.842;2023-04-24T08:04:03;32.10;;;15.53;;
39020;SDS011;25188;51.958;5.842;2023-04-24T08:06:28;30.30;;;16.37;;
39020;SDS011;25188;51.958;5.842;2023-04-24T08:08:58;30.83;;;16.93;;
39020;SDS011;25188;51.958;5.842;2023-04-24T08:11:25;32.47;;;16.87;;
39020;SDS011;25188;51.958;5.842;2023-04-24T08:13:51;34.37;;;17.27;;
39020;SDS011;25188;51.958;5.842;2023-04-24T08:16:17;29.67;;;16.33;;
39020;SDS011;25188;51.958;5.842;2023-04-24T08:18:42;28.33;;;17.37;;
39020;SDS011;25188;51.958;5.842;2023-04-24T08:21:08;23.30;;;14.83;;
39020;SDS011;25188;51.958;5.842;2023-04-24T08:23:34;28.43;;;16.23;;
39020;SDS011;25188;51.958;5.842;2023-04-24T08:25:59;28.60;;;15.47;;
39020;SDS011;25188;51.958;5.842;2023-04-24T08:28:25;30.27;;;16.23;;
39020;SDS011;25188;51.958;5.842;2023-04-24T08:30:51;29.43;;;16.73;;
39020;SDS011;25188;51.958;5.842;2023-04-24T08:33:23;31.17;;;16.00;;
39020;SDS011;25188;51.958;5.842;2023-04-24T08:35:48;32.23;;;16.67;;
39020;SDS011;25188;51.958;5.842;2023-04-24T08:38:14;37.83;;;17.10;;
39020;SDS011;25188;51.958;5.842;2023-04-24T08:40:40;33.27;;;16.67;;
39020;SDS011;25188;51.958;5.842;2023-04-24T08:43:06;31.23;;;17.57;;
39020;SDS011;25188;51.958;5.842;2023-04-24T08:45:33;34.77;;;17.00;;
39020;SDS011;25188;51.958;5.842;2023-04-24T08:47:59;32.23;;;19.20;;
39020;SDS011;25188;51.958;5.842;2023-04-24T08:50:25;31.40;;;18.67;;
39020;SDS011;25188;51.958;5.842;2023-04-24T08:52:51;36.40;;;19.10;;
39020;SDS011;25188;51.958;5.842;2023-04-24T08:55:21;34.33;;;18.47;;
39020;SDS011;25188;51.958;5.842;2023-04-24T08:57:50;38.73;;;18.00;;
39020;SDS011;25188;51.958;5.842;2023-04-24T09:00:21;33.00;;;14.77;;
39020;SDS011;25188;51.958;5.842;2023-04-24T09:02:48;25.83;;;10.90;;
39020;SDS011;25188;51.958;5.842;2023-04-24T09:05:16;20.80;;;8.67;;
39020;SDS011;25188;51.958;5.842;2023-04-24T09:07:44;19.17;;;7.53;;
39020;SDS011;25188;51.958;5.842;2023-04-24T09:10:14;25.17;;;8.17;;
39020;SDS011;25188;51.958;5.842;2023-04-24T09:12:41;19.97;;;7.13;;
39020;SDS011;25188;51.958;5.842;2023-04-24T09:15:09;26.80;;;8.83;;
39020;SDS011;25188;51.958;5.842;2023-04-24T09:17:35;23.33;;;8.67;;
39020;SDS011;25188;51.958;5.842;2023-04-24T09:20:01;21.93;;;8.63;;
39020;SDS011;25188;51.958;5.842;2023-04-24T09:22:29;30.00;;;8.10;;
39020;SDS011;25188;51.958;5.842;2023-04-24T09:25:03;25.03;;;8.73;;
39020;SDS011;25188;51.958;5.842;2023-04-24T09:27:31;19.07;;;7.50;;
39020;SDS011;25188;51.958;5.842;2023-04-24T09:30:01;21.93;;;8.70;;
39020;SDS011;25188;51.958;5.842;2023-04-24T09:32:28;23.27;;;7.63;;
39020;SDS011;25188;51.958;5.842;2023-04-24T09:35:13;22.47;;;6.47;;
39020;SDS011;25188;51.958;5.842;2023-04-24T09:37:44;24.30;;;6.83;;
39020;SDS011;25188;51.958;5.842;2023-04-24T09:40:22;26.30;;;4.80;;
39020;SDS011;25188;51.958;5.842;2023-04-24T09:42:52;17.77;;;4.43;;
39020;SDS011;25188;51.958;5.842;2023-04-24T09:45:18;13.53;;;4.10;;
39020;SDS011;25188;51.958;5.842;2023-04-24T09:47:45;17.07;;;3.53;;
39020;SDS011;25188;51.958;5.842;2023-04-24T09:52:42;17.67;;;3.83;;
39020;SDS011;25188;51.958;5.842;2023-04-24T09:55:26;12.70;;;3.63;;
39020;SDS011;25188;51.958;5.842;2023-04-24T10:00:37;14.25;;;3.45;;
39020;SDS011;25188;51.958;5.842;2023-04-24T10:03:03;11.90;;;3.27;;
39020;SDS011;25188;51.958;5.842;2023-04-24T10:05:31;14.13;;;2.93;;
39020;SDS011;25188;51.958;5.842;2023-04-24T10:08:00;10.17;;;2.40;;
39020;SDS011;25188;51.958;5.842;2023-04-24T10:10:26;14.07;;;3.40;;
39020;SDS011;25188;51.958;5.842;2023-04-24T10:12:52;8.17;;;2.40;;
39020;SDS011;25188;51.958;5.842;2023-04-24T10:15:19;9.57;;;3.17;;
39020;SDS011;25188;51.958;5.842;2023-04-24T10:17:49;14.50;;;2.87;;
39020;SDS011;25188;51.958;5.842;2023-04-24T10:20:22;13.37;;;2.17;;
39020;SDS011;25188;51.958;5.842;2023-04-24T10:22:50;11.63;;;3.10;;
39020;SDS011;25188;51.958;5.842;2023-04-24T10:25:20;10.93;;;2.80;;
39020;SDS011;25188;51.958;5.842;2023-04-24T10:27:47;9.70;;;2.33;;
39020;SDS011;25188;51.958;5.842;2023-04-24T10:30:14;13.23;;;2.53;;
39020;SDS011;25188;51.958;5.842;2023-04-24T10:32:40;13.43;;;3.13;;
39020;SDS011;25188;51.958;5.842;2023-04-24T10:35:07;10.40;;;2.08;;
39020;SDS011;25188;51.958;5.842;2023-04-24T10:37:35;6.65;;;1.45;;
39020;SDS011;25188;51.958;5.842;2023-04-24T10:40:04;5.47;;;1.75;;
39020;SDS011;25188;51.958;5.842;2023-04-24T10:42:32;10.32;;;1.50;;
39020;SDS011;25188;51.958;5.842;2023-04-24T10:44:58;8.32;;;2.13;;
39020;SDS011;25188;51.958;5.842;2023-04-24T10:47:26;12.65;;;2.25;;
39020;SDS011;25188;51.958;5.842;2023-04-24T10:49:52;14.45;;;1.65;;
39020;SDS011;25188;51.958;5.842;2023-04-24T10:52:18;7.60;;;1.30;;
39020;SDS011;25188;51.958;5.842;2023-04-24T10:54:46;5.13;;;1.20;;
39020;SDS011;25188;51.958;5.842;2023-04-24T10:59:47;11.23;;;1.42;;
39020;SDS011;25188;51.958;5.842;2023-04-24T11:02:37;3.90;;;1.13;;
39020;SDS011;25188;51.958;5.842;2023-04-24T11:05:03;7.05;;;1.45;;
39020;SDS011;25188;51.958;5.842;2023-04-24T11:07:30;6.72;;;1.33;;
39020;SDS011;25188;51.958;5.842;2023-04-24T11:13:03;8.60;;;1.30;;
39020;SDS011;25188;51.958;5.842;2023-04-24T11:15:28;8.75;;;1.17;;
39020;SDS011;25188;51.958;5.842;2023-04-24T11:17:55;5.30;;;0.90;;
39020;SDS011;25188;51.958;5.842;2023-04-24T11:20:22;5.70;;;1.00;;
39020;SDS011;25188;51.958;5.842;2023-04-24T11:22:51;4.53;;;0.90;;
39020;SDS011;25188;51.958;5.842;2023-04-24T11:25:19;6.73;;;0.80;;
39020;SDS011;25188;51.958;5.842;2023-04-24T11:27:47;4.17;;;0.83;;
39020;SDS011;25188;51.958;5.842;2023-04-24T11:30:18;4.80;;;1.00;;
39020;SDS011;25188;51.958;5.842;2023-04-24T11:32:49;6.53;;;0.57;;
39020;SDS011;25188;51.958;5.842;2023-04-24T11:37:53;4.40;;;0.60;;
39020;SDS011;25188;51.958;5.842;2023-04-24T11:40:20;3.17;;;0.50;;
39020;SDS011;25188;51.958;5.842;2023-04-24T11:42:50;3.38;;;0.50;;
39020;SDS011;25188;51.958;5.842;2023-04-24T11:45:18;3.53;;;0.70;;
39020;SDS011;25188;51.958;5.842;2023-04-24T11:47:48;2.15;;;0.47;;
39020;SDS011;25188;51.958;5.842;2023-04-24T11:50:16;3.58;;;0.50;;
39020;SDS011;25188;51.958;5.842;2023-04-24T11:52:44;5.10;;;0.65;;
39020;SDS011;25188;51.958;5.842;2023-04-24T11:57:41;2.40;;;0.40;;
39020;SDS011;25188;51.958;5.842;2023-04-24T12:00:14;5.72;;;0.45;;
39020;SDS011;25188;51.958;5.842;2023-04-24T12:02:43;2.80;;;0.70;;
39020;SDS011;25188;51.958;5.842;2023-04-24T12:05:18;4.25;;;0.47;;
39020;SDS011;25188;51.958;5.842;2023-04-24T12:07:48;4.55;;;0.60;;
39020;SDS011;25188;51.958;5.842;2023-04-24T12:10:14;3.55;;;1.05;;
39020;SDS011;25188;51.958;5.842;2023-04-24T12:12:45;2.00;;;0.40;;
39020;SDS011;25188;51.958;5.842;2023-04-24T12:15:11;2.38;;;0.47;;
39020;SDS011;25188;51.958;5.842;2023-04-24T12:17:40;4.80;;;0.65;;
39020;SDS011;25188;51.958;5.842;2023-04-24T12:20:07;6.95;;;0.85;;
39020;SDS011;25188;51.958;5.842;2023-04-24T12:22:43;4.67;;;0.70;;
39020;SDS011;25188;51.958;5.842;2023-04-24T12:25:13;5.67;;;0.97;;
39020;SDS011;25188;51.958;5.842;2023-04-24T12:27:43;2.00;;;0.50;;
39020;SDS011;25188;51.958;5.842;2023-04-24T12:30:11;4.95;;;0.85;;
39020;SDS011;25188;51.958;5.842;2023-04-24T12:32:48;6.23;;;0.80;;
39020;SDS011;25188;51.958;5.842;2023-04-24T12:35:21;6.10;;;0.70;;
39020;SDS011;25188;51.958;5.842;2023-04-24T12:40:14;4.25;;;0.60;;
39020;SDS011;25188;51.958;5.842;2023-04-24T12:42:48;3.00;;;0.60;;
39020;SDS011;25188;51.958;5.842;2023-04-24T12:45:15;5.23;;;1.07;;
39020;SDS011;25188;51.958;5.842;2023-04-24T12:47:42;3.92;;;0.98;;
39020;SDS011;25188;51.958;5.842;2023-04-24T12:50:13;4.88;;;0.40;;
39020;SDS011;25188;51.958;5.842;2023-04-24T12:52:40;7.38;;;0.70;;
39020;SDS011;25188;51.958;5.842;2023-04-24T12:55:07;4.28;;;0.70;;
39020;SDS011;25188;51.958;5.842;2023-04-24T12:57:34;5.07;;;0.40;;
39020;SDS011;25188;51.958;5.842;2023-04-24T13:00:02;3.20;;;0.65;;
39020;SDS011;25188;51.958;5.842;2023-04-24T13:02:29;7.75;;;0.70;;
39020;SDS011;25188;51.958;5.842;2023-04-24T13:04:58;3.30;;;0.50;;
39020;SDS011;25188;51.958;5.842;2023-04-24T13:07:24;4.00;;;0.68;;
39020;SDS011;25188;51.958;5.842;2023-04-24T13:09:51;5.07;;;0.60;;
39020;SDS011;25188;51.958;5.842;2023-04-24T13:12:17;6.57;;;0.70;;
39020;SDS011;25188;51.958;5.842;2023-04-24T13:14:44;5.47;;;0.77;;
39020;SDS011;25188;51.958;5.842;2023-04-24T13:17:10;5.65;;;0.70;;
39020;SDS011;25188;51.958;5.842;2023-04-24T13:19:38;5.90;;;1.43;;
39020;SDS011;25188;51.958;5.842;2023-04-24T13:22:05;5.65;;;0.90;;
39020;SDS011;25188;51.958;5.842;2023-04-24T13:24:31;6.28;;;1.00;;
39020;SDS011;25188;51.958;5.842;2023-04-24T13:26:58;6.35;;;1.50;;
39020;SDS011;25188;51.958;5.842;2023-04-24T13:29:25;9.35;;;1.00;;
39020;SDS011;25188;51.958;5.842;2023-04-24T13:31:50;4.20;;;0.80;;
39020;SDS011;25188;51.958;5.842;2023-04-24T13:34:19;7.10;;;1.02;;
39020;SDS011;25188;51.958;5.842;2023-04-24T13:36:44;8.35;;;1.05;;
39020;SDS011;25188;51.958;5.842;2023-04-24T13:39:11;7.25;;;0.90;;
39020;SDS011;25188;51.958;5.842;2023-04-24T13:41:36;7.75;;;1.30;;
39020;SDS011;25188;51.958;5.842;2023-04-24T13:44:03;7.07;;;1.13;;
39020;SDS011;25188;51.958;5.842;2023-04-24T13:46:29;6.82;;;1.02;;
39020;SDS011;25188;51.958;5.842;2023-04-24T13:48:55;7.95;;;1.30;;
39020;SDS011;25188;51.958;5.842;2023-04-24T13:51:21;8.65;;;1.88;;
39020;SDS011;25188;51.958;5.842;2023-04-24T13:53:48;8.57;;;1.85;;
39020;SDS011;25188;51.958;5.842;2023-04-24T13:56:13;9.27;;;1.48;;
39020;SDS011;25188;51.958;5.842;2023-04-24T13:58:39;7.10;;;1.30;;
39020;SDS011;25188;51.958;5.842;2023-04-24T14:01:05;9.90;;;1.90;;
39020;SDS011;25188;51.958;5.842;2023-04-24T14:03:31;5.25;;;1.40;;
39020;SDS011;25188;51.958;5.842;2023-04-24T14:05:58;7.90;;;1.25;;
39020;SDS011;25188;51.958;5.842;2023-04-24T14:08:23;7.97;;;0.90;;
39020;SDS011;25188;51.958;5.842;2023-04-24T14:10:50;3.72;;;0.70;;
39020;SDS011;25188;51.958;5.842;2023-04-24T14:13:15;7.00;;;1.17;;
39020;SDS011;25188;51.958;5.842;2023-04-24T14:15:41;7.95;;;0.95;;
39020;SDS011;25188;51.958;5.842;2023-04-24T14:18:07;8.10;;;1.27;;
39020;SDS011;25188;51.958;5.842;2023-04-24T14:20:33;8.77;;;1.58;;
39020;SDS011;25188;51.958;5.842;2023-04-24T14:22:58;8.00;;;1.52;;
39020;SDS011;25188;51.958;5.842;2023-04-24T14:25:24;11.60;;;1.30;;
39020;SDS011;25188;51.958;5.842;2023-04-24T14:27:50;9.55;;;1.52;;
39020;SDS011;25188;51.958;5.842;2023-04-24T14:30:16;10.15;;;1.20;;
39020;SDS011;25188;51.958;5.842;2023-04-24T14:32:42;6.82;;;1.48;;
39020;SDS011;25188;51.958;5.842;2023-04-24T14:35:08;10.07;;;1.75;;
39020;SDS011;25188;51.958;5.842;2023-04-24T14:37:34;8.55;;;1.27;;
39020;SDS011;25188;51.958;5.842;2023-04-24T14:40:01;6.68;;;1.60;;
39020;SDS011;25188;51.958;5.842;2023-04-24T14:42:27;7.05;;;1.17;;
39020;SDS011;25188;51.958;5.842;2023-04-24T14:44:53;9.18;;;1.23;;
39020;SDS011;25188;51.958;5.842;2023-04-24T14:47:19;6.20;;;1.45;;
39020;SDS011;25188;51.958;5.842;2023-04-24T14:49:46;8.57;;;1.52;;